createdAt,value
2019-03-16T00:00:53.244Z,84.90
2019-03-16T00:01:57.431Z,84.70
2019-03-16T00:02:57.426Z,85.00
2019-03-16T00:03:58.449Z,85.70
2019-03-16T00:04:59.524Z,85.10
2019-03-16T00:06:00.554Z,84.90
2019-03-16T00:07:01.583Z,84.50
2019-03-16T00:08:02.599Z,84.90
2019-03-16T00:09:04.718Z,84.90
2019-03-16T00:10:05.840Z,85.00
2019-03-16T00:11:06.884Z,85.10
2019-03-16T00:12:07.910Z,85.10
2019-03-16T00:13:08.928Z,85.10
2019-03-16T00:14:09.953Z,85.30
2019-03-16T00:15:30.895Z,85.10
2019-03-16T00:16:31.925Z,85.00
2019-03-16T00:17:32.949Z,85.30
2019-03-16T00:18:33.993Z,85.30
2019-03-16T00:19:35.023Z,85.60
2019-03-16T00:20:36.160Z,85.60
2019-03-16T00:21:37.244Z,85.30
2019-03-16T00:22:38.505Z,84.80
2019-03-16T00:23:39.746Z,84.60
2019-03-16T00:24:40.770Z,84.80
2019-03-16T00:25:41.809Z,84.60
2019-03-16T00:26:42.828Z,84.20
2019-03-16T00:27:43.853Z,84.40
2019-03-16T00:28:44.876Z,84.20
2019-03-16T00:29:45.903Z,85.10
2019-03-16T00:30:46.952Z,84.60
2019-03-16T00:31:49.876Z,84.20
2019-03-16T00:32:50.902Z,84.50
2019-03-16T00:33:51.938Z,84.30
2019-03-16T00:34:52.983Z,84.50
2019-03-16T00:35:54.021Z,84.30
2019-03-16T00:36:55.068Z,84.10
2019-03-16T00:37:56.170Z,84.30
2019-03-16T00:38:57.202Z,85.00
2019-03-16T00:39:58.239Z,84.40
2019-03-16T00:40:59.291Z,85.00
2019-03-16T00:42:00.322Z,84.50
2019-03-16T00:43:01.380Z,84.30
2019-03-16T00:44:02.404Z,84.50
2019-03-16T00:45:04.521Z,84.80
2019-03-16T00:46:05.557Z,84.50
2019-03-16T00:47:06.588Z,84.50
2019-03-16T00:48:07.600Z,84.00
2019-03-16T00:49:08.620Z,84.00
2019-03-16T00:50:10.186Z,84.40
2019-03-16T00:51:11.289Z,84.30
2019-03-16T00:52:12.388Z,84.40
2019-03-16T00:53:13.433Z,84.30
2019-03-16T00:54:14.528Z,84.50
2019-03-16T00:55:15.597Z,84.50
2019-03-16T00:56:16.739Z,84.50
2019-03-16T00:57:17.757Z,84.60
2019-03-16T00:58:18.783Z,84.50
2019-03-16T00:59:19.805Z,84.60
2019-03-16T01:00:20.819Z,84.50
2019-03-16T01:01:21.867Z,85.00
2019-03-16T01:02:27.361Z,84.80
2019-03-16T01:03:25.818Z,85.00
2019-03-16T01:04:26.853Z,84.60
2019-03-16T01:05:27.886Z,84.60
2019-03-16T01:06:28.935Z,84.80
2019-03-16T01:07:29.960Z,84.80
2019-03-16T01:08:30.985Z,85.00
2019-03-16T01:09:32.057Z,84.70
2019-03-16T01:10:33.078Z,84.80
2019-03-16T01:11:34.113Z,85.00
2019-03-16T01:12:35.146Z,84.80
2019-03-16T01:13:36.166Z,85.00
2019-03-16T01:14:37.187Z,84.90
2019-03-16T01:15:38.213Z,84.00
2019-03-16T01:16:39.352Z,83.80
2019-03-16T01:17:40.524Z,83.90
2019-03-16T01:18:41.567Z,83.70
2019-03-16T01:19:42.637Z,83.90
2019-03-16T01:20:43.652Z,84.10
2019-03-16T01:21:44.695Z,84.00
2019-03-16T01:22:45.749Z,84.00
2019-03-16T01:23:46.781Z,83.90
2019-03-16T01:24:47.804Z,83.90
2019-03-16T01:25:48.870Z,84.00
2019-03-16T01:26:49.911Z,84.10
2019-03-16T01:27:50.942Z,85.10
2019-03-16T01:28:51.962Z,84.70
2019-03-16T01:29:52.994Z,84.10
2019-03-16T01:30:54.022Z,83.80
2019-03-16T01:31:55.049Z,84.00
2019-03-16T01:32:56.064Z,84.00
2019-03-16T01:33:57.370Z,83.60
2019-03-16T01:34:58.489Z,83.60
2019-03-16T01:35:59.509Z,83.50
2019-03-16T01:37:00.539Z,83.70
2019-03-16T01:38:01.834Z,83.60
2019-03-16T01:39:04.748Z,83.40
2019-03-16T01:40:09.126Z,83.40
2019-03-16T01:41:10.161Z,83.30
2019-03-16T01:42:11.345Z,83.40
2019-03-16T01:43:12.356Z,83.00
2019-03-16T01:44:13.378Z,82.90
2019-03-16T01:45:14.418Z,82.60
2019-03-16T01:46:15.427Z,83.30
2019-03-16T01:47:16.506Z,83.20
2019-03-16T01:48:17.536Z,83.60
2019-03-16T01:49:18.553Z,83.80
2019-03-16T01:50:21.703Z,84.00
2019-03-16T01:51:22.537Z,84.10
2019-03-16T01:52:23.577Z,84.20
2019-03-16T01:53:24.733Z,84.10
2019-03-16T01:54:26.013Z,84.40
2019-03-16T01:55:27.037Z,84.00
2019-03-16T01:56:28.064Z,84.10
2019-03-16T01:57:29.097Z,84.10
2019-03-16T01:58:30.135Z,83.90
2019-03-16T01:59:31.181Z,83.80
2019-03-16T02:00:32.282Z,84.10
2019-03-16T02:01:33.335Z,83.70
2019-03-16T02:02:34.449Z,83.60
2019-03-16T02:03:35.468Z,84.10
2019-03-16T02:04:36.492Z,84.60
2019-03-16T02:05:37.563Z,83.60
2019-03-16T02:06:38.675Z,83.20
2019-03-16T02:07:39.709Z,83.00
2019-03-16T02:08:40.730Z,84.20
2019-03-16T02:09:41.749Z,83.40
2019-03-16T02:10:42.848Z,84.50
2019-03-16T02:11:43.873Z,83.20
2019-03-16T02:12:44.897Z,82.80
2019-03-16T02:13:45.926Z,82.90
2019-03-16T02:14:46.954Z,82.90
2019-03-16T02:15:47.972Z,83.00
2019-03-16T02:16:49.003Z,83.30
2019-03-16T02:17:51.329Z,83.60
2019-03-16T02:18:52.362Z,83.60
2019-03-16T02:19:53.393Z,83.80
2019-03-16T02:20:54.416Z,83.70
2019-03-16T02:21:55.470Z,83.80
2019-03-16T02:22:56.494Z,83.80
2019-03-16T02:23:57.510Z,83.60
2019-03-16T02:24:58.651Z,83.90
2019-03-16T02:25:59.678Z,84.00
2019-03-16T02:27:00.719Z,84.30
2019-03-16T02:28:01.745Z,84.30
2019-03-16T02:29:02.768Z,84.60
2019-03-16T02:30:04.703Z,84.10
2019-03-16T02:31:05.718Z,84.00
2019-03-16T02:32:06.756Z,84.10
2019-03-16T02:33:13.474Z,83.90
2019-03-16T02:34:10.694Z,83.90
2019-03-16T02:35:11.822Z,84.20
2019-03-16T02:36:13.050Z,84.40
2019-03-16T02:37:14.094Z,84.50
2019-03-16T02:38:15.105Z,84.40
2019-03-16T02:39:16.131Z,84.60
2019-03-16T02:40:17.153Z,84.90
2019-03-16T02:41:18.182Z,84.60
2019-03-16T02:42:19.341Z,84.80
2019-03-16T02:43:20.452Z,84.80
2019-03-16T02:44:21.574Z,84.40
2019-03-16T02:45:22.746Z,84.40
2019-03-16T02:46:23.844Z,84.60
2019-03-16T02:47:25.087Z,84.70
2019-03-16T02:48:26.198Z,84.50
2019-03-16T02:49:27.223Z,84.90
2019-03-16T02:50:28.247Z,85.10
2019-03-16T02:51:29.379Z,84.80
2019-03-16T02:52:30.422Z,84.90
2019-03-16T02:53:31.594Z,85.00
2019-03-16T02:54:32.617Z,84.90
2019-03-16T02:55:33.649Z,84.90
2019-03-16T02:56:34.673Z,84.90
2019-03-16T02:57:35.798Z,84.90
2019-03-16T02:58:36.824Z,85.00
2019-03-16T02:59:37.876Z,85.30
2019-03-16T03:00:39.093Z,85.30
2019-03-16T03:01:40.138Z,85.10
2019-03-16T03:02:41.307Z,85.20
2019-03-16T03:03:42.402Z,85.30
2019-03-16T03:04:45.898Z,85.60
2019-03-16T03:05:46.717Z,85.30
2019-03-16T03:06:47.874Z,85.20
2019-03-16T03:07:48.979Z,85.10
2019-03-16T03:08:50.008Z,85.40
2019-03-16T03:09:51.126Z,85.60
2019-03-16T03:10:52.579Z,85.60
2019-03-16T03:11:53.602Z,85.90
2019-03-16T03:12:54.983Z,85.90
2019-03-16T03:13:56.001Z,85.70
2019-03-16T03:14:57.362Z,85.90
2019-03-16T03:15:58.384Z,86.00
2019-03-16T03:16:59.725Z,86.20
2019-03-16T03:18:01.506Z,86.70
2019-03-16T03:19:02.910Z,86.10
2019-03-16T03:20:04.926Z,86.30
2019-03-16T03:21:05.950Z,86.10
2019-03-16T03:22:06.968Z,86.00
2019-03-16T03:23:07.998Z,85.10
2019-03-16T03:24:09.066Z,85.60
2019-03-16T03:25:10.085Z,85.90
2019-03-16T03:26:11.107Z,86.10
2019-03-16T03:27:12.127Z,86.00
2019-03-16T03:28:13.155Z,86.10
2019-03-16T03:29:14.450Z,86.50
2019-03-16T03:30:15.481Z,86.50
2019-03-16T03:31:16.831Z,86.90
2019-03-16T03:32:17.860Z,86.50
2019-03-16T03:33:18.992Z,86.40
2019-03-16T03:34:20.421Z,86.90
2019-03-16T03:35:21.538Z,87.00
2019-03-16T03:36:22.557Z,87.10
2019-03-16T03:37:23.913Z,86.90
2019-03-16T03:38:24.945Z,86.80
2019-03-16T03:39:26.290Z,86.70
2019-03-16T03:40:27.310Z,86.60
2019-03-16T03:41:28.329Z,86.70
2019-03-16T03:42:29.702Z,86.90
2019-03-16T03:43:31.021Z,86.80
2019-03-16T03:44:32.384Z,86.80
2019-03-16T03:45:33.696Z,87.00
2019-03-16T03:46:34.750Z,87.00
2019-03-16T03:47:36.282Z,87.20
2019-03-16T03:48:37.318Z,87.20
2019-03-16T03:49:38.340Z,87.30
2019-03-16T03:50:39.358Z,87.20
2019-03-16T03:51:40.384Z,87.00
2019-03-16T03:52:41.402Z,87.10
2019-03-16T03:53:42.455Z,87.10
2019-03-16T03:54:43.795Z,87.40
2019-03-16T03:55:44.812Z,87.60
2019-03-16T03:56:45.831Z,87.70
2019-03-16T03:57:47.001Z,87.50
2019-03-16T03:58:48.425Z,87.60
2019-03-16T03:59:49.518Z,87.60
2019-03-16T04:00:50.534Z,87.50
2019-03-16T04:01:51.549Z,87.50
2019-03-16T04:02:52.853Z,87.60
2019-03-16T04:03:53.877Z,87.70
2019-03-16T04:04:55.221Z,87.90
2019-03-16T04:05:56.241Z,87.80
2019-03-16T04:06:57.264Z,87.90
2019-03-16T04:07:58.321Z,87.90
2019-03-16T04:08:59.415Z,87.90
2019-03-16T04:10:00.675Z,87.80
2019-03-16T04:11:01.691Z,87.90
2019-03-16T04:12:03.054Z,87.90
2019-03-16T04:13:04.183Z,88.00
2019-03-16T04:14:05.219Z,88.00
2019-03-16T04:15:08.248Z,89.00
2019-03-16T04:16:09.266Z,87.50
2019-03-16T04:17:10.408Z,88.30
2019-03-16T04:18:11.634Z,88.30
2019-03-16T04:19:12.654Z,88.20
2019-03-16T04:20:13.875Z,88.30
2019-03-16T04:21:14.956Z,88.30
2019-03-16T04:22:16.260Z,88.30
2019-03-16T04:23:17.311Z,88.40
2019-03-16T04:24:18.418Z,88.60
2019-03-16T04:25:19.788Z,88.60
2019-03-16T04:26:20.842Z,88.60
2019-03-16T04:27:21.862Z,88.90
2019-03-16T04:28:22.904Z,88.60
2019-03-16T04:29:24.005Z,88.40
2019-03-16T04:30:25.101Z,88.50
2019-03-16T04:31:26.365Z,88.60
2019-03-16T04:32:27.667Z,88.30
2019-03-16T04:33:28.994Z,88.40
2019-03-16T04:34:30.094Z,88.20
2019-03-16T04:35:31.704Z,88.30
2019-03-16T04:36:36.287Z,88.10
2019-03-16T04:37:37.367Z,88.20
2019-03-16T04:38:38.762Z,88.90
2019-03-16T04:39:40.109Z,88.20
2019-03-16T04:40:44.502Z,88.00
2019-03-16T04:41:44.718Z,88.10
2019-03-16T04:42:45.733Z,87.60
2019-03-16T04:43:47.082Z,87.20
2019-03-16T04:44:48.098Z,87.10
2019-03-16T04:45:49.454Z,87.30
2019-03-16T04:46:50.472Z,87.20
2019-03-16T04:47:51.485Z,87.30
2019-03-16T04:48:52.585Z,87.50
2019-03-16T04:49:53.886Z,87.30
2019-03-16T04:50:54.890Z,86.90
2019-03-16T04:51:56.249Z,87.40
2019-03-16T04:52:57.275Z,87.10
2019-03-16T04:53:58.345Z,87.90
2019-03-16T04:54:59.375Z,87.00
2019-03-16T04:56:00.390Z,87.30
2019-03-16T04:57:01.404Z,87.30
2019-03-16T04:58:02.477Z,87.40
2019-03-16T04:59:04.080Z,87.30
2019-03-16T05:00:07.011Z,87.20
2019-03-16T05:01:08.033Z,87.40
2019-03-16T05:02:09.049Z,87.20
2019-03-16T05:03:10.070Z,87.20
2019-03-16T05:04:13.869Z,87.50
2019-03-16T05:05:14.891Z,87.20
2019-03-16T05:06:16.206Z,87.50
2019-03-16T05:07:17.225Z,87.40
2019-03-16T05:08:18.244Z,87.60
2019-03-16T05:09:19.293Z,87.60
2019-03-16T05:10:20.396Z,87.50
2019-03-16T05:11:21.419Z,87.40
2019-03-16T05:12:22.437Z,87.10
2019-03-16T05:13:23.456Z,86.90
2019-03-16T05:14:24.480Z,86.90
2019-03-16T05:15:25.497Z,86.60
2019-03-16T05:16:26.519Z,86.70
2019-03-16T05:17:27.854Z,86.70
2019-03-16T05:18:29.184Z,86.30
2019-03-16T05:19:30.217Z,85.30
2019-03-16T05:20:31.241Z,86.30
2019-03-16T05:21:32.585Z,85.30
2019-03-16T05:22:33.606Z,81.90
2019-03-16T05:23:34.632Z,80.50
2019-03-16T05:24:35.658Z,80.40
2019-03-16T05:25:37.017Z,80.80
2019-03-16T05:26:39.037Z,80.10
2019-03-16T05:27:40.073Z,79.60
2019-03-16T05:28:41.225Z,79.10
2019-03-16T05:29:42.373Z,80.30
2019-03-16T05:30:43.705Z,80.70
2019-03-16T05:31:45.061Z,80.00
2019-03-16T05:32:46.078Z,80.70
2019-03-16T05:33:47.413Z,80.80
2019-03-16T05:34:56.429Z,81.50
2019-03-16T05:35:51.380Z,81.20
2019-03-16T05:36:55.783Z,81.60
2019-03-16T05:37:55.437Z,81.50
2019-03-16T05:38:56.461Z,81.80
2019-03-16T05:39:57.520Z,81.90
2019-03-16T05:40:58.573Z,82.80
2019-03-16T05:41:59.585Z,83.70
2019-03-16T05:43:00.610Z,84.40
2019-03-16T05:44:01.685Z,84.10
2019-03-16T05:45:03.820Z,84.40
2019-03-16T05:46:04.921Z,85.00
2019-03-16T05:47:06.062Z,86.00
2019-03-16T05:48:07.075Z,86.20
2019-03-16T05:49:10.118Z,86.70
2019-03-16T05:50:12.873Z,87.00
2019-03-16T05:51:14.021Z,88.00
2019-03-16T05:52:15.511Z,89.00
2019-03-16T05:53:16.673Z,89.40
2019-03-16T05:54:18.366Z,90.10
2019-03-16T05:55:19.810Z,90.10
2019-03-16T05:56:20.978Z,90.00
2019-03-16T05:57:22.858Z,90.10
2019-03-16T05:58:24.085Z,90.30
2019-03-16T05:59:25.231Z,90.50
2019-03-16T06:00:26.378Z,90.80
2019-03-16T06:01:27.524Z,90.30
2019-03-16T06:02:28.778Z,90.10
2019-03-16T06:03:30.033Z,90.30
2019-03-16T06:04:31.295Z,90.10
2019-03-16T06:05:32.425Z,90.30
2019-03-16T06:06:33.565Z,90.40
2019-03-16T06:07:35.042Z,90.70
2019-03-16T06:08:36.177Z,91.00
2019-03-16T06:09:37.401Z,90.90
2019-03-16T06:10:38.901Z,90.80
2019-03-16T06:11:40.045Z,91.30
2019-03-16T06:12:41.193Z,91.40
2019-03-16T06:13:42.335Z,91.60
2019-03-16T06:14:43.802Z,91.80
2019-03-16T06:15:45.236Z,92.00
2019-03-16T06:16:46.374Z,92.30
2019-03-16T06:17:47.518Z,92.40
2019-03-16T06:18:48.661Z,92.50
2019-03-16T06:19:49.806Z,92.70
2019-03-16T06:20:50.995Z,92.80
2019-03-16T06:21:52.130Z,92.70
2019-03-16T06:22:53.347Z,92.90
2019-03-16T06:23:54.489Z,93.00
2019-03-16T06:24:55.638Z,93.00
2019-03-16T06:25:57.101Z,92.70
2019-03-16T06:26:58.221Z,93.00
2019-03-16T06:27:59.649Z,93.10
2019-03-16T06:29:01.091Z,93.20
2019-03-16T06:30:04.937Z,93.00
2019-03-16T06:31:06.073Z,92.90
2019-03-16T06:32:07.212Z,92.80
2019-03-16T06:33:08.401Z,92.80
2019-03-16T06:34:09.628Z,93.00
2019-03-16T06:35:23.345Z,92.90
2019-03-16T06:36:13.826Z,93.00
2019-03-16T06:37:14.962Z,93.20
2019-03-16T06:38:16.662Z,93.30
2019-03-16T06:39:18.229Z,93.40
2019-03-16T06:40:19.693Z,93.40
2019-03-16T06:41:20.837Z,93.50
2019-03-16T06:42:22.472Z,93.50
2019-03-16T06:43:23.634Z,93.50
2019-03-16T06:44:24.773Z,93.50
2019-03-16T06:45:26.315Z,93.70
2019-03-16T06:46:27.944Z,93.90
2019-03-16T06:47:29.101Z,93.90
2019-03-16T06:48:30.238Z,93.70
2019-03-16T06:49:31.377Z,93.40
2019-03-16T06:50:32.569Z,93.60
2019-03-16T06:51:33.805Z,93.60
2019-03-16T06:52:35.112Z,93.20
2019-03-16T06:53:36.309Z,93.20
2019-03-16T06:54:37.446Z,93.20
2019-03-16T06:55:38.990Z,92.90
2019-03-16T06:56:40.134Z,93.00
2019-03-16T06:57:41.615Z,93.20
2019-03-16T06:58:42.859Z,93.20
2019-03-16T06:59:44.001Z,93.20
2019-03-16T07:00:45.312Z,93.30
2019-03-16T07:01:46.445Z,93.60
2019-03-16T07:02:47.626Z,93.60
2019-03-16T07:03:50.803Z,93.60
2019-03-16T07:04:51.939Z,93.70
2019-03-16T07:05:53.348Z,93.90
2019-03-16T07:06:54.552Z,93.90
2019-03-16T07:07:55.735Z,93.70
2019-03-16T07:08:56.885Z,93.50
2019-03-16T07:09:58.027Z,93.60
2019-03-16T07:10:59.169Z,93.70
2019-03-16T07:12:00.313Z,93.70
2019-03-16T07:13:01.449Z,93.70
2019-03-16T07:14:03.040Z,94.00
2019-03-16T07:15:15.192Z,93.90
2019-03-16T07:16:16.872Z,93.90
2019-03-16T07:17:18.097Z,94.10
2019-03-16T07:18:19.250Z,94.20
2019-03-16T07:19:20.400Z,94.30
2019-03-16T07:20:21.802Z,94.40
2019-03-16T07:21:22.941Z,94.60
2019-03-16T07:22:24.082Z,94.70
2019-03-16T07:23:25.340Z,94.50
2019-03-16T07:24:26.430Z,94.40
2019-03-16T07:25:27.462Z,94.60
2019-03-16T07:26:28.602Z,94.70
2019-03-16T07:27:29.747Z,94.50
2019-03-16T07:28:30.881Z,94.50
2019-03-16T07:29:32.035Z,95.10
2019-03-16T07:30:33.250Z,94.70
2019-03-16T07:31:34.382Z,94.80
2019-03-16T07:32:35.579Z,94.60
2019-03-16T07:33:36.828Z,94.60
2019-03-16T07:34:38.011Z,94.40
2019-03-16T07:35:39.157Z,94.10
2019-03-16T07:36:40.545Z,94.10
2019-03-16T07:37:41.686Z,94.20
2019-03-16T07:38:42.825Z,94.00
2019-03-16T07:39:43.852Z,93.90
2019-03-16T07:40:44.869Z,93.60
2019-03-16T07:41:45.890Z,93.70
2019-03-16T07:42:46.913Z,93.80
2019-03-16T07:43:47.937Z,93.50
2019-03-16T07:44:48.997Z,93.50
2019-03-16T07:45:50.033Z,93.80
2019-03-16T07:46:51.049Z,94.10
2019-03-16T07:47:52.309Z,94.10
2019-03-16T07:48:53.320Z,94.50
2019-03-16T07:49:54.346Z,94.00
2019-03-16T07:50:55.493Z,94.10
2019-03-16T07:51:56.648Z,93.90
2019-03-16T07:52:57.827Z,93.90
2019-03-16T07:53:59.058Z,94.10
2019-03-16T07:55:00.074Z,94.40
2019-03-16T07:56:01.209Z,94.30
2019-03-16T07:57:02.218Z,94.40
2019-03-16T07:58:03.486Z,94.20
2019-03-16T07:59:04.764Z,94.30
2019-03-16T08:00:07.086Z,94.10
2019-03-16T08:01:08.120Z,93.80
2019-03-16T08:02:09.402Z,93.80
2019-03-16T08:03:10.409Z,93.90
2019-03-16T08:04:11.506Z,94.20
2019-03-16T08:05:18.878Z,94.10
2019-03-16T08:06:15.469Z,94.10
2019-03-16T08:07:16.733Z,93.90
2019-03-16T08:08:17.754Z,93.70
2019-03-16T08:09:18.812Z,93.60
2019-03-16T08:10:20.013Z,93.50
2019-03-16T08:11:21.161Z,93.50
2019-03-16T08:12:22.200Z,93.40
2019-03-16T08:13:23.581Z,93.00
2019-03-16T08:14:24.605Z,93.10
2019-03-16T08:15:28.093Z,93.10
2019-03-16T08:16:29.058Z,93.20
2019-03-16T08:17:30.461Z,93.40
2019-03-16T08:18:31.615Z,93.20
2019-03-16T08:19:32.759Z,92.70
2019-03-16T08:20:34.186Z,93.40
2019-03-16T08:21:35.335Z,92.70
2019-03-16T08:22:36.474Z,93.00
2019-03-16T08:23:37.605Z,93.00
2019-03-16T08:24:39.019Z,93.20
2019-03-16T08:25:40.253Z,93.40
2019-03-16T08:26:41.410Z,93.40
2019-03-16T08:27:53.631Z,93.40
2019-03-16T08:28:45.486Z,93.30
2019-03-16T08:29:46.878Z,93.10
2019-03-16T08:30:48.021Z,93.40
2019-03-16T08:31:49.174Z,92.80
2019-03-16T08:32:50.324Z,92.70
2019-03-16T08:33:51.706Z,92.40
2019-03-16T08:34:53.114Z,92.10
2019-03-16T08:35:54.393Z,92.50
2019-03-16T08:36:55.794Z,92.40
2019-03-16T08:37:57.187Z,92.10
2019-03-16T08:38:58.331Z,92.40
2019-03-16T08:39:59.457Z,92.50
2019-03-16T08:41:00.593Z,92.70
2019-03-16T08:42:01.853Z,92.60
2019-03-16T08:43:02.993Z,92.70
2019-03-16T08:44:04.130Z,92.80
2019-03-16T08:45:07.482Z,93.00
2019-03-16T08:46:08.625Z,93.10
2019-03-16T08:47:09.842Z,93.30
2019-03-16T08:48:22.226Z,93.70
2019-03-16T08:49:14.248Z,93.70
2019-03-16T08:50:15.382Z,93.60
2019-03-16T08:51:16.529Z,93.70
2019-03-16T08:52:17.705Z,93.80
2019-03-16T08:53:18.842Z,93.70
2019-03-16T08:54:19.998Z,93.70
2019-03-16T08:55:21.142Z,93.90
2019-03-16T08:56:22.295Z,94.10
2019-03-16T08:57:23.429Z,94.20
2019-03-16T08:58:24.565Z,94.00
2019-03-16T08:59:25.729Z,94.00
2019-03-16T09:00:26.870Z,93.90
2019-03-16T09:01:28.025Z,94.10
2019-03-16T09:02:29.169Z,93.80
2019-03-16T09:03:42.766Z,93.50
2019-03-16T09:04:33.350Z,93.30
2019-03-16T09:05:34.496Z,93.70
2019-03-16T09:06:35.809Z,93.60
2019-03-16T09:07:37.289Z,93.20
2019-03-16T09:08:38.625Z,93.10
2019-03-16T09:09:40.017Z,93.40
2019-03-16T09:10:41.166Z,93.00
2019-03-16T09:11:42.322Z,93.50
2019-03-16T09:12:54.195Z,93.40
2019-03-16T09:13:46.580Z,93.40
2019-03-16T09:14:47.996Z,93.60
2019-03-16T09:15:49.138Z,93.90
2019-03-16T09:16:50.310Z,93.10
2019-03-16T09:17:51.460Z,93.20
2019-03-16T09:18:52.603Z,93.60
2019-03-16T09:19:54.016Z,93.10
2019-03-16T09:20:55.157Z,93.30
2019-03-16T09:21:56.450Z,93.30
2019-03-16T09:22:57.597Z,93.20
2019-03-16T09:23:58.738Z,93.20
2019-03-16T09:24:59.881Z,93.10
2019-03-16T09:26:01.064Z,92.90
2019-03-16T09:27:04.109Z,93.40
2019-03-16T09:28:14.053Z,93.40
2019-03-16T09:29:14.916Z,93.40
2019-03-16T09:30:12.941Z,93.40
2019-03-16T09:31:14.389Z,93.60
2019-03-16T09:32:15.843Z,93.70
2019-03-16T09:33:17.012Z,93.80
2019-03-16T09:34:18.581Z,93.90
2019-03-16T09:35:19.683Z,93.80
2019-03-16T09:36:20.825Z,93.70
2019-03-16T09:37:21.970Z,93.70
2019-03-16T09:38:23.362Z,93.60
2019-03-16T09:39:24.521Z,93.80
2019-03-16T09:40:25.758Z,94.00
2019-03-16T09:41:28.806Z,93.90
2019-03-16T09:42:29.953Z,94.00
2019-03-16T09:43:31.346Z,94.00
2019-03-16T09:44:32.481Z,94.00
2019-03-16T09:45:33.628Z,94.30
2019-03-16T09:46:35.021Z,94.30
2019-03-16T09:47:36.415Z,94.20
2019-03-16T09:48:37.554Z,94.30
2019-03-16T09:49:38.695Z,94.90
2019-03-16T09:50:40.083Z,95.20
2019-03-16T09:51:41.209Z,95.30
2019-03-16T09:52:42.331Z,95.20
2019-03-16T09:53:43.494Z,95.30
2019-03-16T09:54:44.637Z,95.20
2019-03-16T09:55:46.025Z,95.40
2019-03-16T09:57:00.012Z,95.70
2019-03-16T09:57:49.986Z,95.80
2019-03-16T09:58:51.363Z,95.90
2019-03-16T09:59:52.501Z,96.00
2019-03-16T10:00:53.637Z,96.00
2019-03-16T10:01:54.789Z,95.90
2019-03-16T10:02:55.857Z,95.70
2019-03-16T10:03:56.994Z,95.60
2019-03-16T10:04:58.013Z,95.50
2019-03-16T10:05:59.046Z,95.50
2019-03-16T10:07:00.080Z,95.80
2019-03-16T10:08:01.227Z,96.30
2019-03-16T10:09:04.269Z,96.50
2019-03-16T10:10:09.321Z,96.70
2019-03-16T10:11:10.337Z,96.70
2019-03-16T10:12:11.507Z,96.80
2019-03-16T10:13:12.648Z,97.00
2019-03-16T10:14:13.789Z,97.00
2019-03-16T10:15:14.930Z,97.10
2019-03-16T10:16:16.099Z,97.20
2019-03-16T10:17:17.334Z,97.50
2019-03-16T10:18:18.472Z,97.70
2019-03-16T10:19:19.618Z,97.80
2019-03-16T10:20:20.768Z,98.00
2019-03-16T10:21:21.921Z,98.00
2019-03-16T10:22:23.077Z,98.00
2019-03-16T10:23:24.222Z,98.10
2019-03-16T10:24:26.161Z,98.20
2019-03-16T10:25:27.305Z,98.30
2019-03-16T10:26:28.449Z,98.40
2019-03-16T10:27:29.604Z,98.50
2019-03-16T10:28:42.960Z,98.50
2019-03-16T10:29:33.853Z,98.60
2019-03-16T10:30:35.033Z,98.70
2019-03-16T10:31:36.176Z,98.70
2019-03-16T10:32:37.322Z,98.80
2019-03-16T10:33:38.465Z,98.80
2019-03-16T10:34:39.602Z,99.10
2019-03-16T10:35:40.738Z,98.90
2019-03-16T10:36:41.874Z,98.80
2019-03-16T10:37:43.029Z,98.90
2019-03-16T10:38:44.170Z,98.90
2019-03-16T10:39:45.314Z,99.10
2019-03-16T10:40:46.486Z,99.10
2019-03-16T10:41:47.621Z,99.10
2019-03-16T10:42:48.774Z,99.20
2019-03-16T10:43:49.915Z,99.30
2019-03-16T10:44:51.058Z,99.40
2019-03-16T10:45:52.197Z,99.40
2019-03-16T10:46:53.339Z,99.50
2019-03-16T10:47:54.489Z,99.30
2019-03-16T10:48:55.635Z,99.40
2019-03-16T10:49:56.773Z,99.30
2019-03-16T10:50:57.950Z,99.10
2019-03-16T10:51:59.095Z,99.00
2019-03-16T10:53:00.315Z,99.00
2019-03-16T10:54:01.534Z,99.00
2019-03-16T10:55:04.574Z,99.00
2019-03-16T10:56:05.985Z,98.80
2019-03-16T10:57:07.121Z,99.20
2019-03-16T10:58:08.421Z,98.80
2019-03-16T10:59:09.720Z,98.60
2019-03-16T11:00:14.497Z,98.40
2019-03-16T11:01:15.512Z,98.50
2019-03-16T11:02:16.526Z,98.50
2019-03-16T11:03:17.559Z,98.30
2019-03-16T11:04:18.857Z,98.40
2019-03-16T11:05:19.870Z,98.20
2019-03-16T11:06:20.888Z,98.10
2019-03-16T11:07:21.905Z,98.10
2019-03-16T11:08:23.200Z,98.10
2019-03-16T11:09:26.666Z,97.80
2019-03-16T11:10:27.142Z,98.10
2019-03-16T11:11:28.157Z,97.80
2019-03-16T11:12:29.182Z,97.70
2019-03-16T11:13:30.200Z,97.70
2019-03-16T11:14:31.477Z,97.50
2019-03-16T11:15:32.853Z,97.50
2019-03-16T11:16:33.873Z,97.50
2019-03-16T11:17:34.899Z,97.60
2019-03-16T11:18:35.917Z,97.40
2019-03-16T11:19:37.034Z,97.50
2019-03-16T11:20:38.061Z,97.50
2019-03-16T11:21:39.085Z,97.40
2019-03-16T11:22:40.181Z,97.40
2019-03-16T11:23:41.193Z,97.60
2019-03-16T11:24:42.468Z,97.40
2019-03-16T11:25:45.391Z,97.20
2019-03-16T11:26:46.413Z,97.40
2019-03-16T11:27:47.442Z,97.00
2019-03-16T11:28:48.458Z,97.00
2019-03-16T11:29:49.476Z,97.20
2019-03-16T11:30:50.486Z,97.10
2019-03-16T11:31:51.500Z,96.80
2019-03-16T11:32:52.777Z,96.90
2019-03-16T11:33:53.795Z,96.70
2019-03-16T11:34:54.832Z,96.60
2019-03-16T11:35:55.933Z,96.80
2019-03-16T11:36:56.963Z,96.90
2019-03-16T11:37:57.990Z,97.00
2019-03-16T11:38:59.005Z,97.00
2019-03-16T11:40:00.025Z,96.90
2019-03-16T11:41:01.200Z,96.80
2019-03-16T11:42:02.223Z,97.00
2019-03-16T11:43:03.255Z,96.90
2019-03-16T11:44:04.521Z,97.10
2019-03-16T11:45:06.937Z,96.80
2019-03-16T11:46:07.952Z,97.00
2019-03-16T11:47:08.961Z,97.10
2019-03-16T11:48:10.245Z,97.10
2019-03-16T11:49:11.264Z,97.10
2019-03-16T11:50:12.386Z,96.90
2019-03-16T11:51:13.663Z,96.80
2019-03-16T11:52:14.917Z,97.00
2019-03-16T11:53:15.945Z,96.90
2019-03-16T11:54:17.070Z,96.90
2019-03-16T11:55:18.089Z,97.10
2019-03-16T11:56:19.429Z,97.20
2019-03-16T11:57:20.519Z,97.00
2019-03-16T11:58:21.603Z,96.90
2019-03-16T11:59:22.613Z,96.90
2019-03-16T12:00:23.901Z,97.10
2019-03-16T12:01:24.913Z,97.20
2019-03-16T12:02:25.929Z,97.00
2019-03-16T12:03:26.962Z,96.80
2019-03-16T12:04:27.983Z,96.70
2019-03-16T12:05:29.250Z,96.60
2019-03-16T12:06:30.273Z,96.80
2019-03-16T12:07:31.324Z,96.50
2019-03-16T12:08:32.341Z,96.50
2019-03-16T12:09:33.378Z,96.50
2019-03-16T12:10:34.830Z,96.50
2019-03-16T12:11:36.229Z,96.60
2019-03-16T12:12:37.331Z,96.60
2019-03-16T12:13:38.393Z,96.50
2019-03-16T12:14:39.723Z,96.50
2019-03-16T12:15:41.098Z,96.80
2019-03-16T12:16:42.144Z,96.40
2019-03-16T12:17:43.398Z,96.40
2019-03-16T12:18:44.433Z,96.60
2019-03-16T12:19:45.705Z,96.70
2019-03-16T12:20:46.720Z,96.30
2019-03-16T12:21:47.735Z,96.00
2019-03-16T12:22:48.777Z,96.10
2019-03-16T12:23:50.065Z,95.70
2019-03-16T12:24:51.089Z,95.80
2019-03-16T12:25:52.117Z,96.20
2019-03-16T12:26:53.409Z,96.20
2019-03-16T12:27:54.420Z,96.10
2019-03-16T12:28:55.451Z,95.80
2019-03-16T12:29:56.469Z,96.00
2019-03-16T12:30:57.561Z,95.90
2019-03-16T12:31:58.601Z,95.80
2019-03-16T12:33:01.521Z,95.40
2019-03-16T12:34:02.549Z,95.80
2019-03-16T12:35:04.785Z,95.30
2019-03-16T12:36:05.972Z,95.10
2019-03-16T12:37:07.300Z,95.20
2019-03-16T12:38:08.674Z,94.90
2019-03-16T12:39:09.775Z,95.00
2019-03-16T12:40:14.142Z,95.10
2019-03-16T12:41:15.219Z,94.80
2019-03-16T12:42:16.314Z,94.80
2019-03-16T12:43:17.438Z,94.60
2019-03-16T12:44:18.475Z,94.30
2019-03-16T12:45:20.779Z,94.20
2019-03-16T12:46:22.288Z,94.00
2019-03-16T12:47:23.304Z,94.00
2019-03-16T12:48:24.371Z,94.10
2019-03-16T12:49:25.390Z,93.80
2019-03-16T12:50:26.413Z,94.10
2019-03-16T12:51:27.438Z,93.80
2019-03-16T12:52:28.475Z,93.90
2019-03-16T12:53:29.589Z,93.90
2019-03-16T12:54:30.625Z,93.70
2019-03-16T12:55:31.733Z,93.60
2019-03-16T12:56:32.752Z,93.60
2019-03-16T12:57:33.775Z,93.60
2019-03-16T12:58:34.900Z,93.30
2019-03-16T12:59:46.264Z,93.20
2019-03-16T13:00:38.870Z,93.30
2019-03-16T13:01:39.891Z,93.10
2019-03-16T13:02:40.914Z,93.40
2019-03-16T13:03:41.980Z,92.80
2019-03-16T13:04:43.074Z,92.80
2019-03-16T13:05:44.189Z,92.70
2019-03-16T13:06:45.209Z,92.80
2019-03-16T13:07:46.227Z,92.70
2019-03-16T13:08:47.257Z,93.00
2019-03-16T13:09:48.376Z,92.70